Time;durP1;ratioP1;P1;durP2;ratioP2;P2;SDS_P1;SDS_P2;PMS_P1;PMS_P2;Temp;Humidity;BMP_temperature;BMP_pressure;BME280_temperature;BME280_humidity;BME280_pressure;Samples;Min_cycle;Max_cycle;Signal;HPM_P1;HPM_P2
2023/07/23 00:00:22;;;;;;;7.70;2.40;;;;;;;-128.00;-1.00;-1.00;106777;1254;1012742;-69
2023/07/23 00:03:37;;;;;;;6.50;2.20;;;;;;;-128.00;-1.00;-1.00;106926;1253;1012956;-69
2023/07/23 00:06:24;;;;;;;6.70;2.20;;;;;;;-128.00;-1.00;-1.00;106619;1253;1012802;-70
2023/07/23 00:09:17;;;;;;;7.00;2.50;;;;;;;-128.00;-1.00;-1.00;106749;1253;1010610;-70
2023/07/23 00:12:08;;;;;;;6.40;2.40;;;;;;;-128.00;-1.00;-1.00;106700;1252;1010917;-69
2023/07/23 00:14:56;;;;;;;6.60;2.40;;;;;;;-128.00;-1.00;-1.00;106487;1253;1013289;-67
2023/07/23 00:18:02;;;;;;;6.40;2.30;;;;;;;-128.00;-1.00;-1.00;106618;1253;1012962;-68
2023/07/23 00:20:49;;;;;;;7.50;2.40;;;;;;;-128.00;-1.00;-1.00;106599;1253;1012633;-70
2023/07/23 00:23:36;;;;;;;7.50;2.40;;;;;;;-128.00;-1.00;-1.00;106857;1252;1010264;-70
2023/07/23 00:26:22;;;;;;;6.50;2.50;;;;;;;-128.00;-1.00;-1.00;106783;1253;1011354;-70
2023/07/23 00:29:11;;;;;;;9.40;2.50;;;;;;;-128.00;-1.00;-1.00;106542;1253;1014020;-70
2023/07/23 00:32:01;;;;;;;6.90;2.30;;;;;;;-128.00;-1.00;-1.00;106559;1253;1012793;-70
2023/07/23 00:34:49;;;;;;;8.30;2.40;;;;;;;-128.00;-1.00;-1.00;106527;1254;1013409;-70
2023/07/23 00:37:36;;;;;;;7.00;2.10;;;;;;;-128.00;-1.00;-1.00;106868;1253;1009940;-68
2023/07/23 00:40:22;;;;;;;6.90;2.30;;;;;;;-128.00;-1.00;-1.00;106700;1252;1010722;-69
2023/07/23 00:43:10;;;;;;;7.10;2.30;;;;;;;-128.00;-1.00;-1.00;106843;1253;1013162;-71
2023/07/23 00:45:58;;;;;;;6.50;2.10;;;;;;;-128.00;-1.00;-1.00;106618;1253;1012410;-72
2023/07/23 00:48:46;;;;;;;8.20;2.20;;;;;;;-128.00;-1.00;-1.00;106716;1252;1013362;-71
2023/07/23 00:51:33;;;;;;;6.50;2.10;;;;;;;-128.00;-1.00;-1.00;106597;1253;1010186;-71
2023/07/23 00:54:24;;;;;;;6.90;2.50;;;;;;;-128.00;-1.00;-1.00;106582;1253;1011830;-69
2023/07/23 00:57:19;;;;;;;6.70;2.30;;;;;;;-128.00;-1.00;-1.00;106458;1254;1011803;-69
2023/07/23 01:00:19;;;;;;;7.10;2.70;;;;;;;-128.00;-1.00;-1.00;106586;1260;1012021;-71
2023/07/23 01:03:07;;;;;;;6.90;2.30;;;;;;;-128.00;-1.00;-1.00;106526;1253;1012407;-69
2023/07/23 01:06:00;;;;;;;7.50;2.70;;;;;;;-128.00;-1.00;-1.00;106760;1253;1009871;-70
2023/07/23 01:08:50;;;;;;;6.90;2.50;;;;;;;-128.00;-1.00;-1.00;106652;1253;1011029;-67
2023/07/23 01:11:39;;;;;;;7.80;2.30;;;;;;;-128.00;-1.00;-1.00;106621;1253;1013414;-69
2023/07/23 01:14:31;;;;;;;9.50;2.40;;;;;;;-128.00;-1.00;-1.00;106621;1253;1012007;-73
2023/07/23 01:17:19;;;;;;;7.20;2.30;;;;;;;-128.00;-1.00;-1.00;106588;1252;1013239;-70
2023/07/23 01:20:08;;;;;;;7.80;2.60;;;;;;;-128.00;-1.00;-1.00;106591;1253;1010452;-69
2023/07/23 01:22:54;;;;;;;7.50;2.30;;;;;;;-128.00;-1.00;-1.00;106571;1254;1010424;-70
2023/07/23 01:25:43;;;;;;;7.50;2.60;;;;;;;-128.00;-1.00;-1.00;106751;1253;1012857;-70
2023/07/23 01:28:30;;;;;;;8.00;2.70;;;;;;;-128.00;-1.00;-1.00;106765;1253;1012719;-68
2023/07/23 01:31:21;;;;;;;6.90;2.40;;;;;;;-128.00;-1.00;-1.00;106711;1253;1013213;-69
2023/07/23 01:34:10;;;;;;;8.10;2.50;;;;;;;-128.00;-1.00;-1.00;106456;1253;1010476;-72
2023/07/23 01:36:56;;;;;;;7.20;2.50;;;;;;;-128.00;-1.00;-1.00;106773;1253;1010776;-70
2023/07/23 01:39:49;;;;;;;8.20;2.80;;;;;;;-128.00;-1.00;-1.00;106548;1253;1012622;-68
2023/07/23 01:42:40;;;;;;;7.50;2.10;;;;;;;-128.00;-1.00;-1.00;106562;1258;1012972;-70
2023/07/23 01:45:30;;;;;;;7.40;2.70;;;;;;;-128.00;-1.00;-1.00;106574;1253;1013319;-70
2023/07/23 01:48:16;;;;;;;8.10;2.40;;;;;;;-128.00;-1.00;-1.00;106698;1253;1009879;-69
2023/07/23 01:51:03;;;;;;;6.80;2.30;;;;;;;-128.00;-1.00;-1.00;106292;1258;1011274;-69
2023/07/23 01:53:49;;;;;;;6.40;2.40;;;;;;;-128.00;-1.00;-1.00;106367;1258;1012482;-69
2023/07/23 01:56:36;;;;;;;6.40;2.30;;;;;;;-128.00;-1.00;-1.00;106465;1258;1011984;-69
2023/07/23 01:59:23;;;;;;;6.50;2.30;;;;;;;-128.00;-1.00;-1.00;106255;1260;1012878;-69
2023/07/23 02:02:10;;;;;;;7.20;2.60;;;;;;;-128.00;-1.00;-1.00;106300;1258;1010189;-71
2023/07/23 02:04:57;;;;;;;5.70;2.00;;;;;;;-128.00;-1.00;-1.00;106421;1258;1011185;-69
2023/07/23 02:07:49;;;;;;;6.60;2.20;;;;;;;-128.00;-1.00;-1.00;106316;1258;1013156;-69
2023/07/23 02:10:35;;;;;;;7.00;2.10;;;;;;;-128.00;-1.00;-1.00;106354;1258;1011963;-70
2023/07/23 02:13:22;;;;;;;6.90;2.00;;;;;;;-128.00;-1.00;-1.00;106328;1258;1012418;-70
2023/07/23 02:16:16;;;;;;;6.50;2.30;;;;;;;-128.00;-1.00;-1.00;106436;1258;1009799;-68
2023/07/23 02:19:03;;;;;;;6.10;2.10;;;;;;;-128.00;-1.00;-1.00;106294;1259;1011571;-73
2023/07/23 02:21:50;;;;;;;6.60;2.00;;;;;;;-128.00;-1.00;-1.00;106616;1253;1012999;-70
2023/07/23 02:24:37;;;;;;;6.20;2.20;;;;;;;-128.00;-1.00;-1.00;106872;1253;1013151;-69
2023/07/23 02:27:23;;;;;;;6.20;1.90;;;;;;;-128.00;-1.00;-1.00;106615;1253;1013261;-70
2023/07/23 02:30:10;;;;;;;6.80;2.00;;;;;;;-128.00;-1.00;-1.00;106740;1253;1010225;-70
2023/07/23 02:32:57;;;;;;;7.40;2.30;;;;;;;-128.00;-1.00;-1.00;106625;1252;1010550;-69
2023/07/23 02:35:44;;;;;;;6.40;2.30;;;;;;;-128.00;-1.00;-1.00;106818;1253;1012014;-69
2023/07/23 02:38:30;;;;;;;6.90;2.00;;;;;;;-128.00;-1.00;-1.00;106648;1257;1012732;-69
2023/07/23 02:41:17;;;;;;;6.70;2.40;;;;;;;-128.00;-1.00;-1.00;106716;1253;1012528;-69
2023/07/23 02:44:04;;;;;;;5.90;2.10;;;;;;;-128.00;-1.00;-1.00;106545;1253;1009603;-69
2023/07/23 02:46:50;;;;;;;6.40;2.10;;;;;;;-128.00;-1.00;-1.00;106742;1253;1011176;-70
2023/07/23 02:49:37;;;;;;;6.10;2.20;;;;;;;-128.00;-1.00;-1.00;106787;1253;1013613;-70
2023/07/23 02:52:24;;;;;;;6.00;2.30;;;;;;;-128.00;-1.00;-1.00;106782;1253;1012581;-69
2023/07/23 02:55:11;;;;;;;5.50;1.70;;;;;;;-128.00;-1.00;-1.00;106576;1252;1013089;-71
2023/07/23 02:58:00;;;;;;;6.40;2.30;;;;;;;-128.00;-1.00;-1.00;106563;1252;1009722;-69
2023/07/23 03:00:49;;;;;;;6.70;2.40;;;;;;;-128.00;-1.00;-1.00;106643;1253;1010752;-69
2023/07/23 03:03:35;;;;;;;5.70;2.10;;;;;;;-128.00;-1.00;-1.00;106739;1253;1012091;-70
2023/07/23 03:06:22;;;;;;;7.20;2.30;;;;;;;-128.00;-1.00;-1.00;106637;1260;1012377;-69
2023/07/23 03:09:12;;;;;;;6.40;2.30;;;;;;;-128.00;-1.00;-1.00;106454;1256;1013313;-69
2023/07/23 03:12:03;;;;;;;8.10;2.40;;;;;;;-128.00;-1.00;-1.00;106531;1253;1009676;-69
2023/07/23 03:14:50;;;;;;;6.10;2.20;;;;;;;-128.00;-1.00;-1.00;106744;1253;1011381;-70
2023/07/23 03:17:36;;;;;;;7.70;2.30;;;;;;;-128.00;-1.00;-1.00;106724;1253;1012723;-69
2023/07/23 03:20:23;;;;;;;7.40;2.70;;;;;;;-128.00;-1.00;-1.00;106581;1254;1011892;-69
2023/07/23 03:23:09;;;;;;;7.00;2.70;;;;;;;-128.00;-1.00;-1.00;106748;1253;1013212;-69
2023/07/23 03:25:55;;;;;;;7.40;2.50;;;;;;;-128.00;-1.00;-1.00;106831;1253;1010243;-69
2023/07/23 03:28:42;;;;;;;6.90;2.70;;;;;;;-128.00;-1.00;-1.00;106567;1253;1010906;-69
2023/07/23 03:31:29;;;;;;;7.60;2.70;;;;;;;-128.00;-1.00;-1.00;106793;1253;1013075;-69
2023/07/23 03:34:16;;;;;;;8.70;3.10;;;;;;;-128.00;-1.00;-1.00;106577;1253;1012215;-70
2023/07/23 03:37:02;;;;;;;7.40;3.10;;;;;;;-128.00;-1.00;-1.00;106586;1253;1013459;-69
2023/07/23 03:39:48;;;;;;;7.80;3.00;;;;;;;-128.00;-1.00;-1.00;106474;1253;1009230;-71
2023/07/23 03:42:35;;;;;;;7.40;2.80;;;;;;;-128.00;-1.00;-1.00;106867;1253;1011060;-70
2023/07/23 03:45:22;;;;;;;11.10;3.20;;;;;;;-128.00;-1.00;-1.00;106802;1253;1013639;-70
2023/07/23 03:48:09;;;;;;;9.10;3.30;;;;;;;-128.00;-1.00;-1.00;106609;1257;1012151;-70
2023/07/23 03:50:58;;;;;;;7.30;3.00;;;;;;;-128.00;-1.00;-1.00;106701;1253;1013407;-73
2023/07/23 03:53:44;;;;;;;8.10;3.30;;;;;;;-128.00;-1.00;-1.00;106869;1253;1009546;-73
2023/07/23 03:56:31;;;;;;;9.10;3.80;;;;;;;-128.00;-1.00;-1.00;106576;1253;1010518;-72
2023/07/23 03:59:18;;;;;;;8.80;3.60;;;;;;;-128.00;-1.00;-1.00;106873;1253;1012449;-71
2023/07/23 04:02:06;;;;;;;9.60;3.60;;;;;;;-128.00;-1.00;-1.00;106873;1252;1012524;-70
2023/07/23 04:04:52;;;;;;;8.20;3.40;;;;;;;-128.00;-1.00;-1.00;106709;1253;1013189;-70
2023/07/23 04:07:39;;;;;;;7.80;3.70;;;;;;;-128.00;-1.00;-1.00;106684;1253;1010871;-72
2023/07/23 04:10:26;;;;;;;9.40;3.60;;;;;;;-128.00;-1.00;-1.00;106605;1253;1010822;-71
2023/07/23 04:13:13;;;;;;;10.20;3.30;;;;;;;-128.00;-1.00;-1.00;106752;1252;1012016;-71
2023/07/23 04:16:10;;;;;;;8.20;3.10;;;;;;;-128.00;-1.00;-1.00;106531;1253;1012495;-69
2023/07/23 04:18:57;;;;;;;8.60;3.40;;;;;;;-128.00;-1.00;-1.00;106808;1253;1013649;-70
2023/07/23 04:21:44;;;;;;;8.60;3.50;;;;;;;-128.00;-1.00;-1.00;106795;1253;1009709;-70
2023/07/23 04:24:32;;;;;;;8.10;3.70;;;;;;;-128.00;-1.00;-1.00;106707;1253;1010855;-71
2023/07/23 04:27:19;;;;;;;7.90;3.70;;;;;;;-128.00;-1.00;-1.00;106567;1253;1012750;-70
2023/07/23 04:30:06;;;;;;;9.60;3.60;;;;;;;-128.00;-1.00;-1.00;106528;1256;1012280;-70
2023/07/23 04:32:53;;;;;;;9.60;3.90;;;;;;;-128.00;-1.00;-1.00;106843;1253;1012639;-72
2023/07/23 04:35:40;;;;;;;8.90;3.90;;;;;;;-128.00;-1.00;-1.00;106788;1252;1010367;-72
2023/07/23 04:38:28;;;;;;;8.20;3.50;;;;;;;-128.00;-1.00;-1.00;106635;1253;1010883;-71
2023/07/23 04:41:15;;;;;;;9.20;4.20;;;;;;;-128.00;-1.00;-1.00;106727;1253;1013132;-70
2023/07/23 04:44:03;;;;;;;9.60;3.90;;;;;;;-128.00;-1.00;-1.00;106813;1253;1013170;-71
2023/07/23 04:46:50;;;;;;;8.80;4.30;;;;;;;-128.00;-1.00;-1.00;106611;1253;1013176;-72
2023/07/23 04:49:41;;;;;;;9.40;4.70;;;;;;;-128.00;-1.00;-1.00;106806;1253;1010069;-73
2023/07/23 04:52:27;;;;;;;9.70;5.10;;;;;;;-128.00;-1.00;-1.00;106564;1253;1012348;-71
2023/07/23 04:55:14;;;;;;;10.10;4.50;;;;;;;-128.00;-1.00;-1.00;106793;1253;1012537;-70
2023/07/23 04:58:01;;;;;;;8.10;4.20;;;;;;;-128.00;-1.00;-1.00;106779;1252;1012161;-72
2023/07/23 05:00:49;;;;;;;8.10;3.80;;;;;;;-128.00;-1.00;-1.00;106190;1261;1013032;-70
2023/07/23 05:03:37;;;;;;;10.10;4.20;;;;;;;-128.00;-1.00;-1.00;106055;1262;1010486;-73
2023/07/23 05:06:23;;;;;;;9.20;4.40;;;;;;;-128.00;-1.00;-1.00;106180;1261;1010631;-71
2023/07/23 05:09:13;;;;;;;9.40;4.40;;;;;;;-128.00;-1.00;-1.00;106230;1261;1012336;-73
2023/07/23 05:12:00;;;;;;;8.50;4.00;;;;;;;-128.00;-1.00;-1.00;106090;1262;1013145;-72
2023/07/23 05:14:48;;;;;;;10.20;4.50;;;;;;;-128.00;-1.00;-1.00;106132;1262;1012864;-72
2023/07/23 05:17:36;;;;;;;11.00;4.90;;;;;;;-128.00;-1.00;-1.00;106066;1261;1010127;-72
2023/07/23 05:20:23;;;;;;;10.60;4.10;;;;;;;-128.00;-1.00;-1.00;106213;1261;1010691;-73
2023/07/23 05:23:10;;;;;;;9.30;4.90;;;;;;;-128.00;-1.00;-1.00;106204;1261;1012977;-74
2023/07/23 05:25:57;;;;;;;9.40;4.10;;;;;;;-128.00;-1.00;-1.00;106140;1264;1012877;-72
2023/07/23 05:28:45;;;;;;;8.90;4.50;;;;;;;-128.00;-1.00;-1.00;106136;1262;1012268;-72
2023/07/23 05:31:32;;;;;;;9.30;5.00;;;;;;;-128.00;-1.00;-1.00;106155;1259;1010169;-73
2023/07/23 05:34:19;;;;;;;10.10;4.50;;;;;;;-128.00;-1.00;-1.00;106168;1258;1011156;-73
2023/07/23 05:37:05;;;;;;;10.40;4.50;;;;;;;-128.00;-1.00;-1.00;106364;1258;1012984;-72
2023/07/23 05:39:53;;;;;;;10.80;5.50;;;;;;;-128.00;-1.00;-1.00;106827;1253;1012164;-71
2023/07/23 05:42:39;;;;;;;10.10;4.60;;;;;;;-128.00;-1.00;-1.00;106617;1253;1013293;-73
2023/07/23 05:45:26;;;;;;;10.20;4.60;;;;;;;-128.00;-1.00;-1.00;106600;1253;1009866;-70
2023/07/23 05:48:14;;;;;;;8.80;4.60;;;;;;;-128.00;-1.00;-1.00;106588;1253;1011295;-70
2023/07/23 05:51:00;;;;;;;8.80;4.30;;;;;;;-128.00;-1.00;-1.00;106244;1260;1012447;-70
2023/07/23 05:53:47;;;;;;;9.60;4.30;;;;;;;-128.00;-1.00;-1.00;106143;1260;1013112;-72
2023/07/23 05:56:36;;;;;;;9.70;4.90;;;;;;;-128.00;-1.00;-1.00;106233;1260;1013351;-69
2023/07/23 05:59:22;;;;;;;9.20;4.50;;;;;;;-128.00;-1.00;-1.00;106219;1262;1009705;-70
2023/07/23 06:02:09;;;;;;;8.70;4.50;;;;;;;-128.00;-1.00;-1.00;106209;1260;1011183;-71
2023/07/23 06:04:56;;;;;;;9.40;4.60;;;;;;;-128.00;-1.00;-1.00;106235;1260;1012385;-71
2023/07/23 06:07:42;;;;;;;8.60;3.90;;;;;;;-128.00;-1.00;-1.00;106193;1262;1012703;-72
2023/07/23 06:10:29;;;;;;;10.80;4.70;;;;;;;-128.00;-1.00;-1.00;106180;1261;1013145;-72
2023/07/23 06:13:17;;;;;;;9.60;4.70;;;;;;;-128.00;-1.00;-1.00;106219;1260;1009756;-71
2023/07/23 06:16:03;;;;;;;9.60;5.00;;;;;;;-128.00;-1.00;-1.00;106229;1260;1010781;-71
2023/07/23 06:18:51;;;;;;;9.70;4.70;;;;;;;-128.00;-1.00;-1.00;106227;1260;1013324;-74
2023/07/23 06:21:39;;;;;;;9.90;4.80;;;;;;;-128.00;-1.00;-1.00;106222;1258;1013183;-74
2023/07/23 06:24:26;;;;;;;11.40;4.70;;;;;;;-128.00;-1.00;-1.00;106373;1258;1013626;-73
2023/07/23 06:27:12;;;;;;;9.30;4.30;;;;;;;-128.00;-1.00;-1.00;106284;1258;1010499;-70
2023/07/23 06:29:59;;;;;;;10.00;4.70;;;;;;;-128.00;-1.00;-1.00;106844;1253;1010576;-71
2023/07/23 06:32:47;;;;;;;10.40;5.00;;;;;;;-128.00;-1.00;-1.00;106677;1253;1012951;-74
2023/07/23 06:35:37;;;;;;;8.50;4.20;;;;;;;-128.00;-1.00;-1.00;106639;1253;1012205;-72
2023/07/23 06:38:24;;;;;;;10.00;4.70;;;;;;;-128.00;-1.00;-1.00;106795;1253;1013729;-71
2023/07/23 06:41:10;;;;;;;10.10;4.50;;;;;;;-128.00;-1.00;-1.00;106456;1253;1009642;-72
2023/07/23 06:43:58;;;;;;;12.10;5.20;;;;;;;-128.00;-1.00;-1.00;106617;1253;1011114;-75
2023/07/23 06:46:44;;;;;;;8.80;4.70;;;;;;;-128.00;-1.00;-1.00;106470;1253;1012745;-73
2023/07/23 06:49:31;;;;;;;11.30;4.50;;;;;;;-128.00;-1.00;-1.00;106670;1253;1012969;-73
2023/07/23 06:52:19;;;;;;;9.90;4.60;;;;;;;-128.00;-1.00;-1.00;106464;1254;1013123;-72
2023/07/23 06:55:06;;;;;;;10.30;5.00;;;;;;;-128.00;-1.00;-1.00;106653;1253;1009747;-74
2023/07/23 06:57:53;;;;;;;10.50;4.80;;;;;;;-128.00;-1.00;-1.00;106592;1253;1011217;-73
2023/07/23 07:00:39;;;;;;;11.10;5.10;;;;;;;-128.00;-1.00;-1.00;106476;1253;1013482;-72
2023/07/23 07:03:26;;;;;;;9.50;4.80;;;;;;;-128.00;-1.00;-1.00;106653;1253;1012421;-72
2023/07/23 07:06:15;;;;;;;11.20;4.70;;;;;;;-128.00;-1.00;-1.00;106694;1254;1012953;-72
2023/07/23 07:09:01;;;;;;;9.70;4.50;;;;;;;-128.00;-1.00;-1.00;106381;1257;1010388;-74
2023/07/23 07:11:54;;;;;;;9.80;4.70;;;;;;;-128.00;-1.00;-1.00;106623;1253;1011087;-72
2023/07/23 07:14:41;;;;;;;8.90;4.70;;;;;;;-128.00;-1.00;-1.00;106419;1258;1013337;-71
2023/07/23 07:17:29;;;;;;;11.20;4.80;;;;;;;-128.00;-1.00;-1.00;106498;1254;1012424;-72
2023/07/23 07:20:17;;;;;;;9.40;5.00;;;;;;;-128.00;-1.00;-1.00;106790;1253;1012985;-72
2023/07/23 07:23:03;;;;;;;13.30;5.20;;;;;;;-128.00;-1.00;-1.00;106840;1253;1010673;-73
2023/07/23 07:25:49;;;;;;;9.30;4.60;;;;;;;-128.00;-1.00;-1.00;106658;1253;1010251;-72
2023/07/23 07:28:36;;;;;;;8.70;4.40;;;;;;;-128.00;-1.00;-1.00;106686;1253;1012727;-72
2023/07/23 07:31:25;;;;;;;10.60;4.40;;;;;;;-128.00;-1.00;-1.00;106526;1253;1012690;-70
2023/07/23 07:34:14;;;;;;;9.10;4.60;;;;;;;-128.00;-1.00;-1.00;106604;1253;1013026;-73
2023/07/23 07:37:01;;;;;;;10.30;4.70;;;;;;;-128.00;-1.00;-1.00;106490;1253;1009881;-72
2023/07/23 07:39:49;;;;;;;10.30;4.90;;;;;;;-128.00;-1.00;-1.00;106465;1253;1010951;-73
2023/07/23 07:42:36;;;;;;;11.90;4.90;;;;;;;-128.00;-1.00;-1.00;106635;1253;1013546;-73
2023/07/23 07:45:25;;;;;;;8.80;4.10;;;;;;;-128.00;-1.00;-1.00;106599;1253;1012418;-73
2023/07/23 07:48:20;;;;;;;10.70;5.10;;;;;;;-128.00;-1.00;-1.00;106535;1253;1013291;-71
2023/07/23 07:51:11;;;;;;;10.00;4.70;;;;;;;-128.00;-1.00;-1.00;106515;1253;1009688;-72
2023/07/23 07:53:57;;;;;;;9.70;4.90;;;;;;;-128.00;-1.00;-1.00;106343;1253;1011503;-73
2023/07/23 07:56:49;;;;;;;11.70;5.40;;;;;;;-128.00;-1.00;-1.00;106618;1253;1012148;-75
2023/07/23 07:59:39;;;;;;;10.00;4.60;;;;;;;-128.00;-1.00;-1.00;106547;1253;1012258;-72
2023/07/23 08:02:26;;;;;;;10.40;4.40;;;;;;;-128.00;-1.00;-1.00;106635;1253;1012711;-74
2023/07/23 08:05:14;;;;;;;10.40;5.10;;;;;;;-128.00;-1.00;-1.00;106602;1253;1010539;-73
2023/07/23 08:08:04;;;;;;;11.10;5.00;;;;;;;-128.00;-1.00;-1.00;106670;1253;1011219;-71
2023/07/23 08:10:55;;;;;;;9.90;4.40;;;;;;;-128.00;-1.00;-1.00;106617;1253;1012990;-73
2023/07/23 08:13:42;;;;;;;9.10;4.60;;;;;;;-128.00;-1.00;-1.00;106509;1254;1012330;-72
2023/07/23 08:16:29;;;;;;;9.00;4.60;;;;;;;-128.00;-1.00;-1.00;106444;1253;1013490;-73
2023/07/23 08:19:16;;;;;;;9.00;4.40;;;;;;;-128.00;-1.00;-1.00;106438;1257;1010089;-73
2023/07/23 08:22:03;;;;;;;9.20;4.30;;;;;;;-128.00;-1.00;-1.00;106424;1257;1010477;-71
2023/07/23 08:24:51;;;;;;;9.10;4.40;;;;;;;-128.00;-1.00;-1.00;106306;1257;1013157;-72
2023/07/23 08:27:38;;;;;;;9.70;4.90;;;;;;;-128.00;-1.00;-1.00;106305;1262;1011587;-71
2023/07/23 08:30:25;;;;;;;8.90;4.10;;;;;;;-128.00;-1.00;-1.00;106287;1259;1013343;-73
2023/07/23 08:33:12;;;;;;;9.00;4.40;;;;;;;-128.00;-1.00;-1.00;106282;1257;1010128;-73
2023/07/23 08:36:00;;;;;;;11.10;4.60;;;;;;;-128.00;-1.00;-1.00;106398;1258;1011532;-73
2023/07/23 08:38:48;;;;;;;9.20;4.40;;;;;;;-128.00;-1.00;-1.00;106189;1259;1013137;-72
2023/07/23 08:41:52;;;;;;;11.40;4.70;;;;;;;-128.00;-1.00;-1.00;106348;1257;1013106;-70
2023/07/23 08:44:59;;;;;;;9.90;4.70;;;;;;;-128.00;-1.00;-1.00;106349;1257;1013296;-71
2023/07/23 08:47:47;;;;;;;10.20;4.40;;;;;;;-128.00;-1.00;-1.00;106371;1259;1009877;-71
2023/07/23 08:50:34;;;;;;;7.60;3.70;;;;;;;-128.00;-1.00;-1.00;106407;1253;1011666;-73
2023/07/23 08:53:23;;;;;;;9.80;4.40;;;;;;;-128.00;-1.00;-1.00;106491;1253;1012290;-73
2023/07/23 08:56:10;;;;;;;9.10;4.60;;;;;;;-128.00;-1.00;-1.00;106487;1253;1013267;-73
2023/07/23 08:58:58;;;;;;;9.20;4.60;;;;;;;-128.00;-1.00;-1.00;106813;1253;1013313;-72
2023/07/23 09:01:45;;;;;;;8.90;4.30;;;;;;;-128.00;-1.00;-1.00;106640;1253;1009066;-73
2023/07/23 09:04:31;;;;;;;10.30;4.60;;;;;;;-128.00;-1.00;-1.00;106622;1253;1011512;-73
2023/07/23 09:07:19;;;;;;;9.60;4.60;;;;;;;-128.00;-1.00;-1.00;106857;1253;1012672;-72
2023/07/23 09:10:08;;;;;;;9.80;4.70;;;;;;;-128.00;-1.00;-1.00;106713;1253;1012116;-74
2023/07/23 09:12:54;;;;;;;10.40;5.00;;;;;;;-128.00;-1.00;-1.00;106838;1253;1011960;-72
2023/07/23 09:15:52;;;;;;;8.50;4.40;;;;;;;-128.00;-1.00;-1.00;106842;1253;1010188;-73
2023/07/23 09:18:41;;;;;;;9.30;4.30;;;;;;;-128.00;-1.00;-1.00;106552;1254;1011135;-73
2023/07/23 09:21:27;;;;;;;10.90;5.10;;;;;;;-128.00;-1.00;-1.00;106598;1259;1012568;-73
2023/07/23 09:24:16;;;;;;;9.30;4.30;;;;;;;-128.00;-1.00;-1.00;106583;1253;1012213;-71
2023/07/23 09:27:08;;;;;;;8.70;4.40;;;;;;;-128.00;-1.00;-1.00;106655;1254;1012689;-73
2023/07/23 09:29:56;;;;;;;9.30;4.40;;;;;;;-128.00;-1.00;-1.00;106735;1253;1009794;-73
2023/07/23 09:32:43;;;;;;;10.10;4.50;;;;;;;-128.00;-1.00;-1.00;106750;1253;1010664;-72
2023/07/23 09:35:30;;;;;;;9.50;4.60;;;;;;;-128.00;-1.00;-1.00;106563;1253;1013115;-72
2023/07/23 09:38:17;;;;;;;9.20;4.20;;;;;;;-128.00;-1.00;-1.00;106693;1253;1012286;-70
2023/07/23 09:41:06;;;;;;;9.80;4.10;;;;;;;-128.00;-1.00;-1.00;106895;1253;1012425;-72
2023/07/23 09:44:09;;;;;;;8.10;3.90;;;;;;;-128.00;-1.00;-1.00;106733;1253;1010604;-69
2023/07/23 09:46:59;;;;;;;8.50;3.90;;;;;;;-128.00;-1.00;-1.00;106718;1253;1011676;-75
2023/07/23 09:49:45;;;;;;;10.90;3.70;;;;;;;-128.00;-1.00;-1.00;106487;1253;1012857;-71
2023/07/23 09:52:35;;;;;;;8.90;4.10;;;;;;;-128.00;-1.00;-1.00;106798;1254;1012348;-74
2023/07/23 09:55:22;;;;;;;8.10;3.70;;;;;;;-128.00;-1.00;-1.00;106621;1253;1013583;-74
2023/07/23 09:58:11;;;;;;;8.70;4.20;;;;;;;-128.00;-1.00;-1.00;106625;1253;1009847;-73
2023/07/23 10:00:58;;;;;;;9.00;4.60;;;;;;;-128.00;-1.00;-1.00;106817;1254;1010841;-71
2023/07/23 10:03:47;;;;;;;8.30;4.00;;;;;;;-128.00;-1.00;-1.00;106663;1253;1013002;-72
2023/07/23 10:06:35;;;;;;;8.40;3.90;;;;;;;-128.00;-1.00;-1.00;106623;1253;1012599;-71
2023/07/23 10:09:22;;;;;;;8.00;3.40;;;;;;;-128.00;-1.00;-1.00;106644;1253;1013203;-72
2023/07/23 10:12:11;;;;;;;8.70;4.20;;;;;;;-128.00;-1.00;-1.00;106493;1253;1009858;-73
2023/07/23 10:14:59;;;;;;;8.30;4.20;;;;;;;-128.00;-1.00;-1.00;106524;1253;1011627;-72
2023/07/23 10:17:51;;;;;;;9.10;4.50;;;;;;;-128.00;-1.00;-1.00;106435;1253;1012936;-72
2023/07/23 10:20:40;;;;;;;8.50;4.20;;;;;;;-128.00;-1.00;-1.00;106627;1253;1012516;-72
2023/07/23 10:23:28;;;;;;;8.00;3.90;;;;;;;-128.00;-1.00;-1.00;106545;1253;1013151;-73
2023/07/23 10:26:22;;;;;;;8.30;3.80;;;;;;;-128.00;-1.00;-1.00;106497;1254;1010160;-72
2023/07/23 10:29:19;;;;;;;8.60;4.10;;;;;;;-128.00;-1.00;-1.00;106675;1253;1011272;-73
2023/07/23 10:32:26;;;;;;;9.30;3.30;;;;;;;-128.00;-1.00;-1.00;106503;1253;1011974;-73
2023/07/23 10:35:50;;;;;;;7.80;3.60;;;;;;;-128.00;-1.00;-1.00;106444;1254;1012199;-72
2023/07/23 10:38:38;;;;;;;8.60;3.60;;;;;;;-128.00;-1.00;-1.00;106593;1253;1012500;-72
2023/07/23 10:41:55;;;;;;;8.20;3.30;;;;;;;-128.00;-1.00;-1.00;106861;1253;1009733;-72
2023/07/23 10:44:42;;;;;;;8.50;3.90;;;;;;;-128.00;-1.00;-1.00;106340;1257;1011105;-72
2023/07/23 10:47:32;;;;;;;8.40;3.90;;;;;;;-128.00;-1.00;-1.00;106351;1257;1012528;-71
2023/07/23 10:50:27;;;;;;;8.50;3.90;;;;;;;-128.00;-1.00;-1.00;106392;1257;1013671;-75
2023/07/23 10:53:19;;;;;;;8.50;4.30;;;;;;;-128.00;-1.00;-1.00;106409;1257;1012744;-76
2023/07/23 10:56:25;;;;;;;8.00;3.70;;;;;;;-128.00;-1.00;-1.00;106393;1257;1010103;-73
2023/07/23 10:59:20;;;;;;;8.40;3.30;;;;;;;-128.00;-1.00;-1.00;106317;1259;1010236;-73
2023/07/23 11:02:08;;;;;;;8.30;3.90;;;;;;;-128.00;-1.00;-1.00;106418;1257;1012981;-72
2023/07/23 11:04:58;;;;;;;7.50;3.20;;;;;;;-128.00;-1.00;-1.00;106379;1258;1013382;-73
2023/07/23 11:08:24;;;;;;;8.90;3.70;;;;;;;-128.00;-1.00;-1.00;106374;1257;1013060;-76
2023/07/23 11:11:11;;;;;;;9.40;3.80;;;;;;;-128.00;-1.00;-1.00;106331;1257;1010286;-70
2023/07/23 11:13:58;;;;;;;7.70;3.50;;;;;;;-128.00;-1.00;-1.00;106385;1257;1011223;-69
2023/07/23 11:16:47;;;;;;;8.80;3.80;;;;;;;-128.00;-1.00;-1.00;106706;1254;1012882;-72
2023/07/23 11:19:34;;;;;;;10.40;4.40;;;;;;;-128.00;-1.00;-1.00;106585;1254;1012973;-74
2023/07/23 11:22:20;;;;;;;7.90;3.80;;;;;;;-128.00;-1.00;-1.00;106598;1253;1012717;-71
2023/07/23 11:25:15;;;;;;;9.40;4.00;;;;;;;-128.00;-1.00;-1.00;106645;1253;1009751;-70
2023/07/23 11:28:06;;;;;;;8.90;4.20;;;;;;;-128.00;-1.00;-1.00;106625;1259;1010664;-74
2023/07/23 11:30:56;;;;;;;9.60;4.40;;;;;;;-128.00;-1.00;-1.00;106836;1254;1012573;-73
2023/07/23 11:33:43;;;;;;;10.90;4.60;;;;;;;-128.00;-1.00;-1.00;106819;1253;1012933;-74
2023/07/23 11:36:36;;;;;;;11.20;5.10;;;;;;;-128.00;-1.00;-1.00;106470;1259;1013289;-73
2023/07/23 11:39:24;;;;;;;7.90;3.90;;;;;;;-128.00;-1.00;-1.00;106349;1262;1010320;-72
2023/07/23 11:42:18;;;;;;;10.50;4.60;;;;;;;-128.00;-1.00;-1.00;106334;1257;1011384;-74
2023/07/23 11:45:07;;;;;;;12.80;4.50;;;;;;;-128.00;-1.00;-1.00;106338;1257;1013130;-73
2023/07/23 11:47:56;;;;;;;10.80;4.80;;;;;;;-128.00;-1.00;-1.00;106365;1257;1012914;-76
2023/07/23 11:50:46;;;;;;;10.30;4.40;;;;;;;-128.00;-1.00;-1.00;106385;1257;1012734;-75
2023/07/23 11:53:37;;;;;;;10.50;4.50;;;;;;;-128.00;-1.00;-1.00;106296;1257;1009782;-74
2023/07/23 11:56:30;;;;;;;10.70;4.80;;;;;;;-128.00;-1.00;-1.00;106375;1257;1011162;-74
2023/07/23 11:59:18;;;;;;;10.40;4.60;;;;;;;-128.00;-1.00;-1.00;106308;1257;1012584;-75
2023/07/23 12:02:06;;;;;;;12.10;5.30;;;;;;;-128.00;-1.00;-1.00;106222;1260;1012493;-75
2023/07/23 12:04:55;;;;;;;11.10;4.20;;;;;;;-128.00;-1.00;-1.00;106170;1260;1011987;-75
2023/07/23 12:07:42;;;;;;;11.80;5.20;;;;;;;-128.00;-1.00;-1.00;106120;1260;1009265;-75
2023/07/23 12:10:30;;;;;;;10.30;4.70;;;;;;;-128.00;-1.00;-1.00;106169;1261;1011459;-75
2023/07/23 12:13:17;;;;;;;8.70;4.30;;;;;;;-128.00;-1.00;-1.00;106212;1264;1012580;-74
2023/07/23 12:16:12;;;;;;;10.20;4.90;;;;;;;-128.00;-1.00;-1.00;106283;1257;1012378;-73
2023/07/23 12:19:20;;;;;;;9.00;4.50;;;;;;;-128.00;-1.00;-1.00;106161;1259;1014321;-74
2023/07/23 12:22:08;;;;;;;9.40;4.60;;;;;;;-128.00;-1.00;-1.00;106297;1258;1010463;-74
2023/07/23 12:24:56;;;;;;;9.20;3.90;;;;;;;-128.00;-1.00;-1.00;106294;1260;1011854;-75
2023/07/23 12:27:44;;;;;;;10.00;4.00;;;;;;;-128.00;-1.00;-1.00;106343;1257;1012763;-73
2023/07/23 12:30:31;;;;;;;10.90;4.50;;;;;;;-128.00;-1.00;-1.00;106318;1263;1011973;-70
2023/07/23 12:33:18;;;;;;;11.20;4.50;;;;;;;-128.00;-1.00;-1.00;106234;1257;1012638;-73
2023/07/23 12:36:06;;;;;;;10.00;4.20;;;;;;;-128.00;-1.00;-1.00;106280;1257;1010507;-73
2023/07/23 12:38:55;;;;;;;10.90;4.20;;;;;;;-128.00;-1.00;-1.00;106166;1264;1010638;-75
2023/07/23 12:41:42;;;;;;;12.50;4.70;;;;;;;-128.00;-1.00;-1.00;106043;1262;1013004;-74
2023/07/23 12:44:30;;;;;;;11.40;4.80;;;;;;;-128.00;-1.00;-1.00;106077;1264;1012888;-74
2023/07/23 12:47:16;;;;;;;9.80;4.20;;;;;;;-128.00;-1.00;-1.00;106271;1261;1012678;-71
2023/07/23 12:50:03;;;;;;;9.30;4.50;;;;;;;-128.00;-1.00;-1.00;106287;1259;1010067;-75
2023/07/23 12:52:50;;;;;;;10.60;4.50;;;;;;;-128.00;-1.00;-1.00;106329;1260;1011725;-71